OI61 weather

Mount Carmel Health Heliport
Columbus, Ohio, United States

Public forecast

Using degrees Fahrenheit for public forecast. Weather courtesy of forecast.io.

Closest aviation weather report (METAR) to Mount Carmel Health Heliport

Closest report is Bolton Field, 6.3 nm (11.6 km) WSW. Retrieved 2020/05/26 18:50 UTC (18 minutes ago):

KTZR 261850Z 14009G16KT 10SM SCT046 30/19 A3005

Closest aviation forecast (TAF) to Mount Carmel Health Heliport

Closest forecast is John Glenn Columbus International Airport, 6.5 nm (12.0 km) ENE. Retrieved 2020/05/26 18:27 UTC (41 minutes ago):

TAF KCMH 261723Z 2618/2718 14005KT P6SM FEW040 FEW250 FM270500 14004KT P6SM SCT040 BKN250 FM271000 14004KT P6SM FEW040 BKN120 FM271400 15006KT P6SM SCT040 SCT100